Delanco Township, New Jersey
Current Conditions -  °F | °C
As of 8:54 PM on Friday 28 Nov 2014 (Local Time) from KPNE Reporting Station
Clear Clear  
Wind Chill: 24°   Ceiling: Unl
Heat Index: 30°   Visibility: 10mi
Dew Point: 15°   Wind: 6mph
Humidity: 54%   Direction: 320°NW
Pressure: 30.29"   Gusts: NA
Location:  40.0192°N, 74.9489°W
Report Text: KPNE 290154Z AUTO 32005KT 10SM CLR M01/M09 A3029 RMK AO2 SLP258 T10111094 TSNO
Loading
Personal Weather Stations






























Interactive Weather Map New forecast layout! Learn more

10-Day Weather Forecast

Advertisements
Track Severe Weather on mobile